sensor_id;sensor_type;location;lat;lon;timestamp;pressure;altitude;pressure_sealevel;temperature;humidity
69528;BME280;57136;51.986;4.468;2022-12-18T00:00:41;102873.22;;;-2.69;100.00
69528;BME280;57136;51.986;4.468;2022-12-18T00:03:07;102866.69;;;-2.85;100.00
69528;BME280;57136;51.986;4.468;2022-12-18T00:05:32;102877.72;;;-2.95;100.00
69528;BME280;57136;51.986;4.468;2022-12-18T00:07:58;102877.66;;;-3.14;100.00
69528;BME280;57136;51.986;4.468;2022-12-18T00:10:23;102880.66;;;-3.18;100.00
69528;BME280;57136;51.986;4.468;2022-12-18T00:12:48;102884.50;;;-3.04;100.00
69528;BME280;57136;51.986;4.468;2022-12-18T00:15:13;102888.44;;;-3.08;100.00
69528;BME280;57136;51.986;4.468;2022-12-18T00:17:39;102882.13;;;-3.03;100.00
69528;BME280;57136;51.986;4.468;2022-12-18T00:20:04;102876.25;;;-3.02;100.00
69528;BME280;57136;51.986;4.468;2022-12-18T00:22:30;102877.78;;;-3.04;100.00
69528;BME280;57136;51.986;4.468;2022-12-18T00:24:55;102877.06;;;-3.11;100.00
69528;BME280;57136;51.986;4.468;2022-12-18T00:27:20;102875.22;;;-3.04;100.00
69528;BME280;57136;51.986;4.468;2022-12-18T00:29:46;102877.06;;;-3.11;100.00
69528;BME280;57136;51.986;4.468;2022-12-18T00:32:12;102863.31;;;-3.22;100.00
69528;BME280;57136;51.986;4.468;2022-12-18T00:34:38;102875.63;;;-3.27;100.00
69528;BME280;57136;51.986;4.468;2022-12-18T00:37:03;102885.22;;;-3.24;100.00
69528;BME280;57136;51.986;4.468;2022-12-18T00:39:28;102878.78;;;-3.29;100.00
69528;BME280;57136;51.986;4.468;2022-12-18T00:41:53;102865.31;;;-3.37;100.00
69528;BME280;57136;51.986;4.468;2022-12-18T00:44:37;102875.38;;;-3.39;100.00
69528;BME280;57136;51.986;4.468;2022-12-18T00:47:03;102878.84;;;-3.47;100.00
69528;BME280;57136;51.986;4.468;2022-12-18T00:49:28;102881.56;;;-3.54;100.00
69528;BME280;57136;51.986;4.468;2022-12-18T00:51:53;102881.66;;;-3.44;100.00
69528;BME280;57136;51.986;4.468;2022-12-18T00:54:18;102880.78;;;-3.44;100.00
69528;BME280;57136;51.986;4.468;2022-12-18T00:56:44;102883.72;;;-3.31;100.00
69528;BME280;57136;51.986;4.468;2022-12-18T00:59:09;102890.50;;;-3.32;100.00
69528;BME280;57136;51.986;4.468;2022-12-18T01:01:35;102880.84;;;-3.17;100.00
69528;BME280;57136;51.986;4.468;2022-12-18T01:04:01;102879.84;;;-3.27;100.00
69528;BME280;57136;51.986;4.468;2022-12-18T01:06:27;102889.44;;;-3.34;100.00
69528;BME280;57136;51.986;4.468;2022-12-18T01:08:52;102877.75;;;-3.32;100.00
69528;BME280;57136;51.986;4.468;2022-12-18T01:11:19;102885.72;;;-3.46;100.00
69528;BME280;57136;51.986;4.468;2022-12-18T01:13:45;102888.00;;;-3.49;100.00
69528;BME280;57136;51.986;4.468;2022-12-18T01:16:12;102894.41;;;-3.35;100.00
69528;BME280;57136;51.986;4.468;2022-12-18T01:18:37;102898.47;;;-3.46;100.00
69528;BME280;57136;51.986;4.468;2022-12-18T01:21:07;102902.88;;;-3.63;100.00
69528;BME280;57136;51.986;4.468;2022-12-18T01:23:32;102908.84;;;-3.62;100.00
69528;BME280;57136;51.986;4.468;2022-12-18T01:25:58;102896.75;;;-3.73;100.00
69528;BME280;57136;51.986;4.468;2022-12-18T01:28:23;102896.78;;;-3.82;100.00
69528;BME280;57136;51.986;4.468;2022-12-18T01:30:48;102902.03;;;-3.89;100.00
69528;BME280;57136;51.986;4.468;2022-12-18T01:33:14;102903.50;;;-3.83;100.00
69528;BME280;57136;51.986;4.468;2022-12-18T01:35:42;102907.72;;;-3.92;100.00
69528;BME280;57136;51.986;4.468;2022-12-18T01:38:08;102910.25;;;-4.01;100.00
69528;BME280;57136;51.986;4.468;2022-12-18T01:40:33;102904.13;;;-4.03;100.00
69528;BME280;57136;51.986;4.468;2022-12-18T01:42:58;102907.28;;;-4.14;100.00
69528;BME280;57136;51.986;4.468;2022-12-18T01:45:27;102905.63;;;-4.23;100.00
69528;BME280;57136;51.986;4.468;2022-12-18T01:47:59;102913.72;;;-4.36;100.00
69528;BME280;57136;51.986;4.468;2022-12-18T01:50:32;102912.66;;;-4.38;100.00
69528;BME280;57136;51.986;4.468;2022-12-18T01:53:11;102916.41;;;-4.34;100.00
69528;BME280;57136;51.986;4.468;2022-12-18T01:55:42;102918.97;;;-4.34;100.00
69528;BME280;57136;51.986;4.468;2022-12-18T01:58:09;102915.38;;;-4.36;100.00
69528;BME280;57136;51.986;4.468;2022-12-18T02:00:34;102921.34;;;-4.27;100.00
69528;BME280;57136;51.986;4.468;2022-12-18T02:03:00;102926.00;;;-4.31;100.00
69528;BME280;57136;51.986;4.468;2022-12-18T02:05:44;102931.84;;;-4.32;100.00
69528;BME280;57136;51.986;4.468;2022-12-18T02:08:19;102921.22;;;-4.28;100.00
69528;BME280;57136;51.986;4.468;2022-12-18T02:10:54;102930.78;;;-4.26;100.00
69528;BME280;57136;51.986;4.468;2022-12-18T02:16:24;102916.41;;;-4.16;100.00
69528;BME280;57136;51.986;4.468;2022-12-18T02:18:58;102907.91;;;-4.08;100.00
69528;BME280;57136;51.986;4.468;2022-12-18T02:21:32;102915.06;;;-3.86;100.00
69528;BME280;57136;51.986;4.468;2022-12-18T02:26:37;102909.03;;;-3.69;100.00
69528;BME280;57136;51.986;4.468;2022-12-18T02:29:11;102921.63;;;-3.80;100.00
69528;BME280;57136;51.986;4.468;2022-12-18T02:31:45;102920.75;;;-3.80;100.00
69528;BME280;57136;51.986;4.468;2022-12-18T02:34:13;102926.91;;;-3.96;100.00
69528;BME280;57136;51.986;4.468;2022-12-18T02:36:41;102915.63;;;-3.89;100.00
69528;BME280;57136;51.986;4.468;2022-12-18T02:39:10;102920.44;;;-3.83;100.00
69528;BME280;57136;51.986;4.468;2022-12-18T02:41:36;102911.63;;;-3.78;100.00
69528;BME280;57136;51.986;4.468;2022-12-18T02:44:08;102903.22;;;-3.95;100.00
69528;BME280;57136;51.986;4.468;2022-12-18T02:46:37;102894.22;;;-4.00;100.00
69528;BME280;57136;51.986;4.468;2022-12-18T02:51:55;102885.41;;;-4.12;100.00
69528;BME280;57136;51.986;4.468;2022-12-18T02:57:20;102878.22;;;-4.25;100.00
69528;BME280;57136;51.986;4.468;2022-12-18T02:59:58;102878.53;;;-4.22;100.00
69528;BME280;57136;51.986;4.468;2022-12-18T03:02:35;102873.59;;;-4.29;100.00
69528;BME280;57136;51.986;4.468;2022-12-18T03:05:11;102865.78;;;-4.40;100.00
69528;BME280;57136;51.986;4.468;2022-12-18T03:07:43;102859.50;;;-4.43;100.00
69528;BME280;57136;51.986;4.468;2022-12-18T03:10:14;102859.94;;;-4.47;100.00
69528;BME280;57136;51.986;4.468;2022-12-18T03:12:52;102845.56;;;-4.56;100.00
69528;BME280;57136;51.986;4.468;2022-12-18T03:15:23;102851.25;;;-4.67;100.00
69528;BME280;57136;51.986;4.468;2022-12-18T03:18:01;102854.25;;;-4.62;100.00
69528;BME280;57136;51.986;4.468;2022-12-18T03:20:31;102856.97;;;-4.61;100.00
69528;BME280;57136;51.986;4.468;2022-12-18T03:23:02;102862.19;;;-4.51;100.00
69528;BME280;57136;51.986;4.468;2022-12-18T03:25:30;102856.53;;;-4.39;100.00
69528;BME280;57136;51.986;4.468;2022-12-18T03:28:00;102850.38;;;-4.41;100.00
69528;BME280;57136;51.986;4.468;2022-12-18T03:30:29;102852.47;;;-4.37;100.00
69528;BME280;57136;51.986;4.468;2022-12-18T03:33:19;102852.31;;;-4.39;100.00
69528;BME280;57136;51.986;4.468;2022-12-18T03:35:48;102847.22;;;-4.47;100.00
69528;BME280;57136;51.986;4.468;2022-12-18T03:38:14;102849.91;;;-4.55;100.00
69528;BME280;57136;51.986;4.468;2022-12-18T03:41:06;102844.38;;;-4.59;100.00
69528;BME280;57136;51.986;4.468;2022-12-18T03:43:54;102855.44;;;-4.76;100.00
69528;BME280;57136;51.986;4.468;2022-12-18T03:46:28;102851.84;;;-4.78;100.00
69528;BME280;57136;51.986;4.468;2022-12-18T03:49:10;102855.41;;;-4.94;100.00
69528;BME280;57136;51.986;4.468;2022-12-18T03:51:45;102856.91;;;-4.96;100.00
69528;BME280;57136;51.986;4.468;2022-12-18T03:54:16;102845.78;;;-5.05;100.00
69528;BME280;57136;51.986;4.468;2022-12-18T03:56:46;102848.22;;;-4.98;100.00
69528;BME280;57136;51.986;4.468;2022-12-18T03:59:15;102856.91;;;-4.96;100.00
69528;BME280;57136;51.986;4.468;2022-12-18T04:01:46;102853.91;;;-4.92;100.00
69528;BME280;57136;51.986;4.468;2022-12-18T04:04:13;102848.53;;;-4.86;100.00
69528;BME280;57136;51.986;4.468;2022-12-18T04:06:41;102850.63;;;-4.91;100.00
69528;BME280;57136;51.986;4.468;2022-12-18T04:09:07;102850.31;;;-4.94;100.00
69528;BME280;57136;51.986;4.468;2022-12-18T04:11:33;102855.09;;;-4.97;100.00
69528;BME280;57136;51.986;4.468;2022-12-18T04:13:59;102842.38;;;-4.97;100.00
69528;BME280;57136;51.986;4.468;2022-12-18T04:16:25;102845.66;;;-4.98;100.00
69528;BME280;57136;51.986;4.468;2022-12-18T04:18:51;102846.09;;;-5.02;100.00
69528;BME280;57136;51.986;4.468;2022-12-18T04:21:16;102850.56;;;-5.08;100.00
69528;BME280;57136;51.986;4.468;2022-12-18T04:23:42;102853.53;;;-5.13;100.00
69528;BME280;57136;51.986;4.468;2022-12-18T04:26:07;102854.28;;;-5.14;100.00
69528;BME280;57136;51.986;4.468;2022-12-18T04:28:33;102871.78;;;-5.17;100.00
69528;BME280;57136;51.986;4.468;2022-12-18T04:30:58;102859.81;;;-5.18;100.00
69528;BME280;57136;51.986;4.468;2022-12-18T04:33:23;102855.75;;;-5.16;100.00
69528;BME280;57136;51.986;4.468;2022-12-18T04:35:48;102858.03;;;-5.19;100.00
69528;BME280;57136;51.986;4.468;2022-12-18T04:38:14;102854.84;;;-5.25;100.00
69528;BME280;57136;51.986;4.468;2022-12-18T04:40:39;102856.94;;;-5.30;100.00
69528;BME280;57136;51.986;4.468;2022-12-18T04:43:05;102852.13;;;-5.35;100.00
69528;BME280;57136;51.986;4.468;2022-12-18T04:45:31;102850.63;;;-5.33;100.00
69528;BME280;57136;51.986;4.468;2022-12-18T04:47:57;102860.47;;;-5.36;100.00
69528;BME280;57136;51.986;4.468;2022-12-18T04:50:23;102864.94;;;-5.43;100.00
69528;BME280;57136;51.986;4.468;2022-12-18T04:52:48;102860.13;;;-5.48;100.00
69528;BME280;57136;51.986;4.468;2022-12-18T04:55:13;102863.91;;;-5.45;100.00
69528;BME280;57136;51.986;4.468;2022-12-18T04:57:39;102855.56;;;-5.35;100.00
69528;BME280;57136;51.986;4.468;2022-12-18T05:00:05;102864.69;;;-5.37;100.00
69528;BME280;57136;51.986;4.468;2022-12-18T05:02:31;102847.94;;;-5.35;100.00
69528;BME280;57136;51.986;4.468;2022-12-18T05:04:56;102854.50;;;-5.37;100.00
69528;BME280;57136;51.986;4.468;2022-12-18T05:07:22;102850.50;;;-5.35;100.00
69528;BME280;57136;51.986;4.468;2022-12-18T05:09:47;102862.59;;;-5.32;100.00
69528;BME280;57136;51.986;4.468;2022-12-18T05:12:12;102851.97;;;-5.37;100.00
69528;BME280;57136;51.986;4.468;2022-12-18T05:14:38;102856.09;;;-5.46;100.00
69528;BME280;57136;51.986;4.468;2022-12-18T05:17:03;102850.59;;;-5.42;100.00
69528;BME280;57136;51.986;4.468;2022-12-18T05:19:28;102850.28;;;-5.45;100.00
69528;BME280;57136;51.986;4.468;2022-12-18T05:21:53;102842.94;;;-5.51;100.00
69528;BME280;57136;51.986;4.468;2022-12-18T05:24:19;102849.50;;;-5.53;100.00
69528;BME280;57136;51.986;4.468;2022-12-18T05:26:44;102837.66;;;-5.61;100.00
69528;BME280;57136;51.986;4.468;2022-12-18T05:29:09;102845.13;;;-5.63;100.00
69528;BME280;57136;51.986;4.468;2022-12-18T05:31:37;102838.25;;;-5.64;100.00
69528;BME280;57136;51.986;4.468;2022-12-18T05:34:03;102838.72;;;-5.59;100.00
69528;BME280;57136;51.986;4.468;2022-12-18T05:36:28;102833.94;;;-5.56;100.00
69528;BME280;57136;51.986;4.468;2022-12-18T05:38:53;102839.78;;;-5.57;100.00
69528;BME280;57136;51.986;4.468;2022-12-18T05:41:19;102843.06;;;-5.58;100.00
69528;BME280;57136;51.986;4.468;2022-12-18T05:43:44;102841.25;;;-5.59;100.00
69528;BME280;57136;51.986;4.468;2022-12-18T05:46:13;102836.03;;;-5.61;100.00
69528;BME280;57136;51.986;4.468;2022-12-18T05:48:39;102832.75;;;-5.60;100.00
69528;BME280;57136;51.986;4.468;2022-12-18T05:51:07;102835.84;;;-5.62;100.00
69528;BME280;57136;51.986;4.468;2022-12-18T05:53:33;102821.59;;;-5.78;100.00
69528;BME280;57136;51.986;4.468;2022-12-18T05:56:03;102835.53;;;-5.65;100.00
69528;BME280;57136;51.986;4.468;2022-12-18T05:58:30;102832.91;;;-5.58;100.00
69528;BME280;57136;51.986;4.468;2022-12-18T06:00:56;102833.91;;;-5.65;100.00
69528;BME280;57136;51.986;4.468;2022-12-18T06:03:22;102841.31;;;-5.75;100.00
69528;BME280;57136;51.986;4.468;2022-12-18T06:05:47;102836.19;;;-5.59;100.00
69528;BME280;57136;51.986;4.468;2022-12-18T06:08:13;102825.06;;;-5.68;100.00
69528;BME280;57136;51.986;4.468;2022-12-18T06:10:39;102826.13;;;-5.66;100.00
69528;BME280;57136;51.986;4.468;2022-12-18T06:13:06;102812.97;;;-5.71;100.00
69528;BME280;57136;51.986;4.468;2022-12-18T06:15:31;102804.59;;;-5.70;100.00
69528;BME280;57136;51.986;4.468;2022-12-18T06:17:57;102797.97;;;-5.85;100.00
69528;BME280;57136;51.986;4.468;2022-12-18T06:20:22;102796.94;;;-5.79;100.00
69528;BME280;57136;51.986;4.468;2022-12-18T06:22:47;102797.25;;;-5.76;100.00
69528;BME280;57136;51.986;4.468;2022-12-18T06:25:13;102804.56;;;-5.79;100.00
69528;BME280;57136;51.986;4.468;2022-12-18T06:27:39;102806.50;;;-5.76;100.00
69528;BME280;57136;51.986;4.468;2022-12-18T06:30:05;102804.72;;;-5.77;100.00
69528;BME280;57136;51.986;4.468;2022-12-18T06:32:30;102800.38;;;-5.78;100.00
69528;BME280;57136;51.986;4.468;2022-12-18T06:34:56;102793.78;;;-5.85;100.00
69528;BME280;57136;51.986;4.468;2022-12-18T06:37:22;102796.22;;;-5.78;100.00
69528;BME280;57136;51.986;4.468;2022-12-18T06:39:51;102784.22;;;-5.88;100.00
69528;BME280;57136;51.986;4.468;2022-12-18T06:42:16;102792.75;;;-5.78;100.00
69528;BME280;57136;51.986;4.468;2022-12-18T06:44:41;102788.69;;;-5.85;100.00
69528;BME280;57136;51.986;4.468;2022-12-18T06:47:06;102786.03;;;-5.78;100.00
69528;BME280;57136;51.986;4.468;2022-12-18T06:49:32;102771.06;;;-5.83;100.00
69528;BME280;57136;51.986;4.468;2022-12-18T06:51:57;102770.72;;;-5.95;100.00
69528;BME280;57136;51.986;4.468;2022-12-18T06:54:23;102758.75;;;-5.96;100.00
69528;BME280;57136;51.986;4.468;2022-12-18T06:56:48;102767.75;;;-5.91;100.00
69528;BME280;57136;51.986;4.468;2022-12-18T06:59:13;102765.94;;;-5.92;100.00
69528;BME280;57136;51.986;4.468;2022-12-18T07:01:40;102756.22;;;-5.96;100.00
69528;BME280;57136;51.986;4.468;2022-12-18T07:04:05;102762.03;;;-5.97;100.00
69528;BME280;57136;51.986;4.468;2022-12-18T07:06:30;102747.72;;;-5.97;100.00
69528;BME280;57136;51.986;4.468;2022-12-18T07:08:56;102746.22;;;-6.04;100.00
69528;BME280;57136;51.986;4.468;2022-12-18T07:11:22;102752.19;;;-5.94;100.00
69528;BME280;57136;51.986;4.468;2022-12-18T07:13:47;102737.38;;;-5.98;100.00
69528;BME280;57136;51.986;4.468;2022-12-18T07:16:15;102730.25;;;-6.03;100.00
69528;BME280;57136;51.986;4.468;2022-12-18T07:18:40;102718.44;;;-6.02;100.00
69528;BME280;57136;51.986;4.468;2022-12-18T07:21:09;102712.41;;;-6.11;100.00
69528;BME280;57136;51.986;4.468;2022-12-18T07:23:35;102693.06;;;-6.02;100.00
69528;BME280;57136;51.986;4.468;2022-12-18T07:26:06;102684.81;;;-6.08;100.00
69528;BME280;57136;51.986;4.468;2022-12-18T07:28:32;102686.53;;;-5.82;100.00
69528;BME280;57136;51.986;4.468;2022-12-18T07:31:01;102683.41;;;-5.80;100.00
69528;BME280;57136;51.986;4.468;2022-12-18T07:33:27;102688.06;;;-5.76;100.00
69528;BME280;57136;51.986;4.468;2022-12-18T07:35:52;102689.53;;;-5.78;100.00
69528;BME280;57136;51.986;4.468;2022-12-18T07:38:17;102689.84;;;-5.75;100.00
69528;BME280;57136;51.986;4.468;2022-12-18T07:40:43;102697.31;;;-5.76;100.00
69528;BME280;57136;51.986;4.468;2022-12-18T07:43:08;102699.09;;;-5.75;100.00
69528;BME280;57136;51.986;4.468;2022-12-18T07:45:33;102709.88;;;-5.78;100.00
69528;BME280;57136;51.986;4.468;2022-12-18T07:47:58;102705.94;;;-5.83;100.00
69528;BME280;57136;51.986;4.468;2022-12-18T07:50:24;102707.00;;;-5.81;100.00
69528;BME280;57136;51.986;4.468;2022-12-18T07:52:49;102707.75;;;-5.82;100.00
69528;BME280;57136;51.986;4.468;2022-12-18T07:55:15;102693.28;;;-5.74;100.00
69528;BME280;57136;51.986;4.468;2022-12-18T07:57:43;102689.38;;;-5.79;100.00
69528;BME280;57136;51.986;4.468;2022-12-18T08:00:09;102683.00;;;-5.67;100.00
69528;BME280;57136;51.986;4.468;2022-12-18T08:02:34;102692.56;;;-5.64;100.00
69528;BME280;57136;51.986;4.468;2022-12-18T08:05:00;102688.94;;;-5.75;100.00
69528;BME280;57136;51.986;4.468;2022-12-18T08:07:25;102684.94;;;-5.64;100.00
69528;BME280;57136;51.986;4.468;2022-12-18T08:09:51;102687.34;;;-5.57;100.00
69528;BME280;57136;51.986;4.468;2022-12-18T08:12:16;102685.44;;;-5.51;100.00
69528;BME280;57136;51.986;4.468;2022-12-18T08:14:41;102693.31;;;-5.57;100.00
69528;BME280;57136;51.986;4.468;2022-12-18T08:17:07;102687.66;;;-5.45;100.00
69528;BME280;57136;51.986;4.468;2022-12-18T08:19:32;102680.03;;;-5.54;100.00
69528;BME280;57136;51.986;4.468;2022-12-18T08:21:57;102672.72;;;-5.42;100.00
69528;BME280;57136;51.986;4.468;2022-12-18T08:24:23;102682.91;;;-5.42;100.00
69528;BME280;57136;51.986;4.468;2022-12-18T08:26:48;102680.06;;;-5.28;100.00
69528;BME280;57136;51.986;4.468;2022-12-18T08:29:13;102679.19;;;-5.28;100.00
69528;BME280;57136;51.986;4.468;2022-12-18T08:31:39;102680.66;;;-5.21;100.00
69528;BME280;57136;51.986;4.468;2022-12-18T08:34:04;102696.41;;;-5.08;100.00
69528;BME280;57136;51.986;4.468;2022-12-18T08:36:30;102695.91;;;-5.13;100.00
69528;BME280;57136;51.986;4.468;2022-12-18T08:38:56;102687.56;;;-5.03;100.00
69528;BME280;57136;51.986;4.468;2022-12-18T08:41:21;102704.94;;;-4.90;100.00
69528;BME280;57136;51.986;4.468;2022-12-18T08:43:47;102711.34;;;-4.85;100.00
69528;BME280;57136;51.986;4.468;2022-12-18T08:46:35;102714.19;;;-4.90;100.00
69528;BME280;57136;51.986;4.468;2022-12-18T08:49:01;102714.91;;;-4.83;100.00
69528;BME280;57136;51.986;4.468;2022-12-18T08:51:26;102738.84;;;-4.72;100.00
69528;BME280;57136;51.986;4.468;2022-12-18T08:53:52;102737.81;;;-4.74;100.00
69528;BME280;57136;51.986;4.468;2022-12-18T08:56:17;102743.78;;;-4.56;100.00
69528;BME280;57136;51.986;4.468;2022-12-18T08:58:43;102737.97;;;-4.63;100.00
69528;BME280;57136;51.986;4.468;2022-12-18T09:01:10;102734.22;;;-4.58;100.00
69528;BME280;57136;51.986;4.468;2022-12-18T09:03:36;102728.22;;;-4.68;100.00
69528;BME280;57136;51.986;4.468;2022-12-18T09:06:02;102733.75;;;-4.45;100.00
69528;BME280;57136;51.986;4.468;2022-12-18T09:08:27;102717.56;;;-4.37;100.00
69528;BME280;57136;51.986;4.468;2022-12-18T09:10:53;102717.38;;;-4.30;100.00
69528;BME280;57136;51.986;4.468;2022-12-18T09:13:19;102702.31;;;-4.46;100.00
69528;BME280;57136;51.986;4.468;2022-12-18T09:15:47;102690.78;;;-4.42;100.00
69528;BME280;57136;51.986;4.468;2022-12-18T09:18:14;102675.97;;;-4.46;100.00
69528;BME280;57136;51.986;4.468;2022-12-18T09:20:39;102663.38;;;-4.45;100.00
69528;BME280;57136;51.986;4.468;2022-12-18T09:23:06;102657.81;;;-4.41;100.00
69528;BME280;57136;51.986;4.468;2022-12-18T09:25:32;102656.00;;;-4.24;100.00
69528;BME280;57136;51.986;4.468;2022-12-18T09:28:18;102671.66;;;-4.11;100.00
69528;BME280;57136;51.986;4.468;2022-12-18T09:30:47;102671.94;;;-4.08;100.00
69528;BME280;57136;51.986;4.468;2022-12-18T09:33:12;102664.97;;;-4.19;100.00
69528;BME280;57136;51.986;4.468;2022-12-18T09:35:39;102666.34;;;-3.95;100.00
69528;BME280;57136;51.986;4.468;2022-12-18T09:38:06;102672.06;;;-3.97;100.00
69528;BME280;57136;51.986;4.468;2022-12-18T09:40:41;102681.44;;;-3.87;100.00
69528;BME280;57136;51.986;4.468;2022-12-18T09:43:16;102682.66;;;-3.93;100.00
69528;BME280;57136;51.986;4.468;2022-12-18T09:45:46;102682.03;;;-3.90;100.00
69528;BME280;57136;51.986;4.468;2022-12-18T09:48:21;102688.47;;;-3.85;100.00
69528;BME280;57136;51.986;4.468;2022-12-18T09:50:50;102687.81;;;-3.73;100.00
69528;BME280;57136;51.986;4.468;2022-12-18T09:53:22;102682.63;;;-3.56;100.00
69528;BME280;57136;51.986;4.468;2022-12-18T09:55:50;102678.50;;;-3.45;100.00
69528;BME280;57136;51.986;4.468;2022-12-18T09:58:35;102675.66;;;-3.67;100.00
69528;BME280;57136;51.986;4.468;2022-12-18T10:01:10;102671.91;;;-3.71;100.00
69528;BME280;57136;51.986;4.468;2022-12-18T10:03:36;102670.31;;;-3.51;100.00
69528;BME280;57136;51.986;4.468;2022-12-18T10:08:45;102656.75;;;-3.41;100.00
69528;BME280;57136;51.986;4.468;2022-12-18T10:11:43;102657.69;;;-3.50;100.00
69528;BME280;57136;51.986;4.468;2022-12-18T10:17:20;102637.31;;;-3.50;100.00
69528;BME280;57136;51.986;4.468;2022-12-18T10:20:10;102634.13;;;-3.47;99.51
69528;BME280;57136;51.986;4.468;2022-12-18T10:28:14;102627.97;;;-3.21;98.74
69528;BME280;57136;51.986;4.468;2022-12-18T10:30:41;102622.78;;;-3.12;99.04
69528;BME280;57136;51.986;4.468;2022-12-18T10:33:11;102619.38;;;-3.03;98.47
69528;BME280;57136;51.986;4.468;2022-12-18T10:35:41;102636.09;;;-2.77;99.08
69528;BME280;57136;51.986;4.468;2022-12-18T10:38:21;102626.44;;;-2.71;98.81
69528;BME280;57136;51.986;4.468;2022-12-18T10:43:35;102619.56;;;-2.91;98.00
69528;BME280;57136;51.986;4.468;2022-12-18T10:48:35;102618.44;;;-2.54;97.40
69528;BME280;57136;51.986;4.468;2022-12-18T10:51:02;102615.75;;;-2.56;98.25
69528;BME280;57136;51.986;4.468;2022-12-18T10:53:30;102621.06;;;-2.34;98.02
69528;BME280;57136;51.986;4.468;2022-12-18T10:56:05;102615.16;;;-2.43;97.68
69528;BME280;57136;51.986;4.468;2022-12-18T11:01:11;102620.13;;;-2.34;96.54
69528;BME280;57136;51.986;4.468;2022-12-18T11:06:17;102623.38;;;-2.27;95.30
69528;BME280;57136;51.986;4.468;2022-12-18T11:08:56;102602.41;;;-2.33;95.30
69528;BME280;57136;51.986;4.468;2022-12-18T11:11:23;102599.50;;;-2.06;95.49
69528;BME280;57136;51.986;4.468;2022-12-18T11:13:59;102602.19;;;-2.05;94.87
69528;BME280;57136;51.986;4.468;2022-12-18T11:16:27;102602.94;;;-2.27;94.18
69528;BME280;57136;51.986;4.468;2022-12-18T11:18:53;102600.53;;;-2.04;93.86
69528;BME280;57136;51.986;4.468;2022-12-18T11:21:18;102605.13;;;-2.21;93.30
69528;BME280;57136;51.986;4.468;2022-12-18T11:23:50;102593.00;;;-2.03;93.46
69528;BME280;57136;51.986;4.468;2022-12-18T11:26:16;102591.84;;;-2.06;94.05
69528;BME280;57136;51.986;4.468;2022-12-18T11:28:52;102589.56;;;-1.83;93.62
69528;BME280;57136;51.986;4.468;2022-12-18T11:31:27;102587.38;;;-1.88;92.72
69528;BME280;57136;51.986;4.468;2022-12-18T11:36:21;102580.09;;;-2.04;92.81
69528;BME280;57136;51.986;4.468;2022-12-18T11:38:49;102576.78;;;-1.93;92.56
69528;BME280;57136;51.986;4.468;2022-12-18T11:41:36;102574.34;;;-2.12;92.25
69528;BME280;57136;51.986;4.468;2022-12-18T11:44:26;102554.31;;;-1.87;92.94
69528;BME280;57136;51.986;4.468;2022-12-18T11:46:59;102546.25;;;-1.71;92.59
69528;BME280;57136;51.986;4.468;2022-12-18T11:49:32;102538.31;;;-1.74;91.73
69528;BME280;57136;51.986;4.468;2022-12-18T11:52:21;102525.28;;;-1.87;92.00
69528;BME280;57136;51.986;4.468;2022-12-18T11:54:51;102519.66;;;-1.93;93.26
69528;BME280;57136;51.986;4.468;2022-12-18T11:57:33;102507.53;;;-1.86;93.58
69528;BME280;57136;51.986;4.468;2022-12-18T12:00:07;102509.53;;;-1.71;93.07
69528;BME280;57136;51.986;4.468;2022-12-18T12:03:14;102498.16;;;-1.64;91.72
69528;BME280;57136;51.986;4.468;2022-12-18T12:08:22;102501.03;;;-1.49;91.30
69528;BME280;57136;51.986;4.468;2022-12-18T12:21:53;102492.75;;;-1.47;91.29
69528;BME280;57136;51.986;4.468;2022-12-18T12:27:09;102485.44;;;-1.42;90.42
69528;BME280;57136;51.986;4.468;2022-12-18T12:29:55;102482.63;;;-1.45;90.21
69528;BME280;57136;51.986;4.468;2022-12-18T12:32:43;102482.78;;;-1.44;91.23
69528;BME280;57136;51.986;4.468;2022-12-18T12:40:26;102473.25;;;-1.67;91.31
69528;BME280;57136;51.986;4.468;2022-12-18T12:43:03;102469.25;;;-1.53;90.99
69528;BME280;57136;51.986;4.468;2022-12-18T12:46:17;102469.59;;;-1.48;91.24
69528;BME280;57136;51.986;4.468;2022-12-18T12:49:02;102460.78;;;-1.52;91.04
69528;BME280;57136;51.986;4.468;2022-12-18T12:51:33;102462.94;;;-1.46;91.08
69528;BME280;57136;51.986;4.468;2022-12-18T12:54:16;102457.44;;;-1.41;90.97
69528;BME280;57136;51.986;4.468;2022-12-18T12:56:49;102453.66;;;-1.56;91.53
69528;BME280;57136;51.986;4.468;2022-12-18T12:59:27;102450.41;;;-1.43;90.64
69528;BME280;57136;51.986;4.468;2022-12-18T13:02:06;102441.44;;;-1.38;91.25
69528;BME280;57136;51.986;4.468;2022-12-18T13:04:48;102430.41;;;-1.27;91.16
69528;BME280;57136;51.986;4.468;2022-12-18T13:13:14;102428.22;;;-1.32;91.66
69528;BME280;57136;51.986;4.468;2022-12-18T13:15:46;102424.03;;;-1.32;91.23
69528;BME280;57136;51.986;4.468;2022-12-18T13:18:19;102418.84;;;-1.22;90.99
69528;BME280;57136;51.986;4.468;2022-12-18T13:20:50;102424.72;;;-1.23;91.43
69528;BME280;57136;51.986;4.468;2022-12-18T13:23:27;102417.53;;;-1.16;91.26
69528;BME280;57136;51.986;4.468;2022-12-18T13:25:58;102411.59;;;-1.27;91.68
69528;BME280;57136;51.986;4.468;2022-12-18T13:28:49;102395.34;;;-1.28;91.77
69528;BME280;57136;51.986;4.468;2022-12-18T13:31:09;102394.78;;;-1.24;91.53
69528;BME280;57136;51.986;4.468;2022-12-18T13:33:39;102386.25;;;-1.24;91.61
69528;BME280;57136;51.986;4.468;2022-12-18T13:38:47;102379.44;;;-1.24;92.56
69528;BME280;57136;51.986;4.468;2022-12-18T13:43:47;102362.25;;;-1.37;92.56
69528;BME280;57136;51.986;4.468;2022-12-18T13:46:23;102363.81;;;-1.16;92.10
69528;BME280;57136;51.986;4.468;2022-12-18T13:49:02;102372.31;;;-1.06;92.09
69528;BME280;57136;51.986;4.468;2022-12-18T13:51:29;102367.19;;;-1.06;92.08
69528;BME280;57136;51.986;4.468;2022-12-18T13:54:20;102371.91;;;-1.22;92.38
69528;BME280;57136;51.986;4.468;2022-12-18T13:56:48;102354.47;;;-1.16;92.01
69528;BME280;57136;51.986;4.468;2022-12-18T14:02:00;102340.28;;;-1.00;91.49
69528;BME280;57136;51.986;4.468;2022-12-18T14:04:31;102347.69;;;-1.15;92.60